createdAt,value
2023-01-19T00:01:19.535Z,74.27
2023-01-19T00:03:45.945Z,74.84
2023-01-19T00:06:12.591Z,75.81
2023-01-19T00:08:39.622Z,75.19
2023-01-19T00:11:06.002Z,75.78
2023-01-19T00:13:32.387Z,75.80
2023-01-19T00:15:58.965Z,76.12
2023-01-19T00:18:25.456Z,76.02
2023-01-19T00:20:51.972Z,75.73
2023-01-19T00:23:19.488Z,75.24
2023-01-19T00:25:46.113Z,75.19
2023-01-19T00:28:12.752Z,74.77
2023-01-19T00:30:40.751Z,74.87
2023-01-19T00:33:07.542Z,72.22
2023-01-19T00:35:35.967Z,72.68
2023-01-19T00:38:03.173Z,72.88
2023-01-19T00:40:29.577Z,73.21
2023-01-19T00:42:56.617Z,73.02
2023-01-19T00:45:23.540Z,74.04
2023-01-19T00:47:49.913Z,73.98
2023-01-19T00:50:16.291Z,73.45
2023-01-19T00:52:42.708Z,73.57
2023-01-19T00:55:09.181Z,73.84
2023-01-19T00:57:35.598Z,74.46
2023-01-19T01:00:05.343Z,74.26
2023-01-19T01:02:33.349Z,74.23
2023-01-19T01:05:00.183Z,73.59
2023-01-19T01:07:28.649Z,73.72
2023-01-19T01:09:55.042Z,73.82
2023-01-19T01:12:21.443Z,74.37
2023-01-19T01:14:48.013Z,74.79
2023-01-19T01:17:14.984Z,74.20
2023-01-19T01:19:42.044Z,75.07
2023-01-19T01:22:08.379Z,74.50
2023-01-19T01:24:35.651Z,74.45
2023-01-19T01:27:02.043Z,74.32
2023-01-19T01:29:28.401Z,74.84
2023-01-19T01:31:57.312Z,74.48
2023-01-19T01:34:23.745Z,74.84
2023-01-19T01:36:52.518Z,75.28
2023-01-19T01:39:19.131Z,75.35
2023-01-19T01:41:45.684Z,75.41
2023-01-19T01:44:13.733Z,75.98
2023-01-19T01:46:41.120Z,75.98
2023-01-19T01:49:07.458Z,75.59
2023-01-19T01:51:34.035Z,75.67
2023-01-19T01:54:00.423Z,75.58
2023-01-19T01:56:27.512Z,74.56
2023-01-19T01:58:53.917Z,73.41
2023-01-19T02:01:20.419Z,74.21
2023-01-19T02:03:47.069Z,74.69
2023-01-19T02:06:13.409Z,75.30
2023-01-19T02:08:39.793Z,75.55
2023-01-19T02:11:06.153Z,75.40
2023-01-19T02:13:32.609Z,74.68
2023-01-19T02:15:58.992Z,74.00
2023-01-19T02:18:25.373Z,73.71
2023-01-19T02:20:51.755Z,73.20
2023-01-19T02:23:18.079Z,73.62
2023-01-19T02:25:44.452Z,73.46
2023-01-19T02:28:10.825Z,73.34
2023-01-19T02:30:37.704Z,73.54
2023-01-19T02:33:04.108Z,73.75
2023-01-19T02:35:30.441Z,73.67
2023-01-19T02:37:56.880Z,74.03
2023-01-19T02:40:23.430Z,74.02
2023-01-19T02:42:50.053Z,74.23
2023-01-19T02:45:16.393Z,74.43
2023-01-19T02:47:42.732Z,74.63
2023-01-19T02:50:09.116Z,74.68
2023-01-19T02:52:35.480Z,74.53
2023-01-19T02:55:02.876Z,74.38
2023-01-19T02:57:29.225Z,74.30
2023-01-19T02:59:55.563Z,74.49
2023-01-19T03:02:22.245Z,74.24
2023-01-19T03:04:48.872Z,74.94
2023-01-19T03:07:15.255Z,75.19
2023-01-19T03:09:41.652Z,75.00
2023-01-19T03:12:08.011Z,75.07
2023-01-19T03:14:34.342Z,74.71
2023-01-19T03:17:00.684Z,74.88
2023-01-19T03:19:28.068Z,74.78
2023-01-19T03:21:54.451Z,75.16
2023-01-19T03:24:20.796Z,74.47
2023-01-19T03:26:47.481Z,75.11
2023-01-19T03:29:15.049Z,75.10
2023-01-19T03:31:42.505Z,75.12
2023-01-19T03:34:10.574Z,74.75
2023-01-19T03:36:36.910Z,74.99
2023-01-19T03:39:03.555Z,74.53
2023-01-19T03:41:29.921Z,74.58
2023-01-19T03:43:56.302Z,74.33
2023-01-19T03:46:22.699Z,74.60
2023-01-19T03:48:50.155Z,74.75
2023-01-19T03:51:16.567Z,73.93
2023-01-19T03:53:43.024Z,74.62
2023-01-19T03:56:09.390Z,74.79
2023-01-19T03:58:35.768Z,74.54
2023-01-19T04:01:02.198Z,74.43
2023-01-19T04:03:29.111Z,74.33
2023-01-19T04:05:55.477Z,74.37
2023-01-19T04:08:22.885Z,74.32
2023-01-19T04:10:49.344Z,74.34
2023-01-19T04:13:15.687Z,74.57
2023-01-19T04:15:42.633Z,74.75
2023-01-19T04:18:11.557Z,74.76
2023-01-19T04:20:37.948Z,74.51
2023-01-19T04:23:04.599Z,75.15
2023-01-19T04:25:31.009Z,75.91
2023-01-19T04:27:57.523Z,75.95
2023-01-19T04:30:24.530Z,75.93
2023-01-19T04:32:50.907Z,75.99
2023-01-19T04:35:17.244Z,75.69
2023-01-19T04:37:44.616Z,74.39
2023-01-19T04:40:11.120Z,73.75
2023-01-19T04:42:37.600Z,74.80
2023-01-19T04:45:03.982Z,74.95
2023-01-19T04:47:30.329Z,75.45
2023-01-19T04:50:01.307Z,74.74
2023-01-19T04:52:27.633Z,74.74
2023-01-19T04:54:54.074Z,75.17
2023-01-19T04:57:20.461Z,74.84
2023-01-19T04:59:49.406Z,74.88
2023-01-19T05:02:16.833Z,74.35
2023-01-19T05:04:43.395Z,71.45
2023-01-19T05:07:09.770Z,72.15
2023-01-19T05:09:36.151Z,72.70
2023-01-19T05:12:02.616Z,73.36
2023-01-19T05:14:30.238Z,73.14
2023-01-19T05:17:03.273Z,73.28
2023-01-19T05:19:29.723Z,74.38
2023-01-19T05:21:56.464Z,74.78
2023-01-19T05:24:25.300Z,74.87
2023-01-19T05:26:51.788Z,74.98
2023-01-19T05:29:20.423Z,72.45
2023-01-19T05:31:47.047Z,73.86
2023-01-19T05:34:13.440Z,74.49
2023-01-19T05:36:39.880Z,73.50
2023-01-19T05:39:06.266Z,73.53
2023-01-19T05:41:33.049Z,73.97
2023-01-19T05:43:59.402Z,74.04
2023-01-19T05:46:25.989Z,74.75
2023-01-19T05:48:52.581Z,74.89
2023-01-19T05:51:19.302Z,74.99
2023-01-19T05:53:45.679Z,74.26
2023-01-19T05:56:12.368Z,74.37
2023-01-19T05:58:38.750Z,74.60
2023-01-19T06:01:05.164Z,74.32
2023-01-19T06:03:31.591Z,73.62
2023-01-19T06:05:57.994Z,73.89
2023-01-19T06:08:24.385Z,73.60
2023-01-19T06:10:50.781Z,74.73
2023-01-19T06:13:17.283Z,75.55
2023-01-19T06:15:43.935Z,75.71
2023-01-19T06:18:10.586Z,75.67
2023-01-19T06:20:36.951Z,75.50
2023-01-19T06:23:03.852Z,76.20
2023-01-19T06:25:30.400Z,75.92
2023-01-19T06:27:56.736Z,76.12
2023-01-19T06:30:23.210Z,76.01
2023-01-19T06:32:49.587Z,75.07
2023-01-19T06:35:16.231Z,74.07
2023-01-19T06:37:42.747Z,73.57
2023-01-19T06:40:09.153Z,73.38
2023-01-19T06:42:35.531Z,73.07
2023-01-19T06:45:01.883Z,73.08
2023-01-19T06:47:28.236Z,73.33
2023-01-19T06:49:55.804Z,73.55
2023-01-19T06:52:22.232Z,73.03
2023-01-19T06:54:49.783Z,73.38
2023-01-19T06:57:16.618Z,73.73
2023-01-19T06:59:43.912Z,73.56
2023-01-19T07:02:27.620Z,74.14
2023-01-19T07:04:55.054Z,74.02
2023-01-19T07:07:23.773Z,73.78
2023-01-19T07:09:51.529Z,73.70
2023-01-19T07:12:20.864Z,73.44
2023-01-19T07:14:47.358Z,72.94
2023-01-19T07:17:13.776Z,73.25
2023-01-19T07:19:40.340Z,73.37
2023-01-19T07:22:06.756Z,72.79
2023-01-19T07:24:33.165Z,73.40
2023-01-19T07:26:59.659Z,73.76
2023-01-19T07:29:28.389Z,73.78
2023-01-19T07:31:55.902Z,74.32
2023-01-19T07:34:24.856Z,74.23
2023-01-19T07:36:51.270Z,73.60
2023-01-19T07:39:17.867Z,73.80
2023-01-19T07:41:44.246Z,74.51
2023-01-19T07:44:10.662Z,74.77
2023-01-19T07:46:37.056Z,74.55
2023-01-19T07:49:03.543Z,74.52
2023-01-19T07:51:29.992Z,73.75
2023-01-19T07:53:56.445Z,69.18
2023-01-19T07:56:23.659Z,70.11
2023-01-19T07:58:50.100Z,71.67
2023-01-19T08:01:16.948Z,72.59
2023-01-19T08:03:43.405Z,73.74
2023-01-19T08:06:09.798Z,74.25
2023-01-19T08:08:36.256Z,74.53
2023-01-19T08:11:02.724Z,74.14
2023-01-19T08:13:29.093Z,72.00
2023-01-19T08:15:55.497Z,72.16
2023-01-19T08:18:21.920Z,72.36
2023-01-19T08:20:48.333Z,72.80
2023-01-19T08:23:14.938Z,73.75
2023-01-19T08:25:41.493Z,74.27
2023-01-19T08:28:08.215Z,74.13
2023-01-19T08:30:34.574Z,74.02
2023-01-19T08:33:01.323Z,72.93
2023-01-19T08:35:27.956Z,71.77
2023-01-19T08:37:54.524Z,72.08
2023-01-19T08:40:21.907Z,71.97
2023-01-19T08:42:48.741Z,72.37
2023-01-19T08:45:15.141Z,73.10
2023-01-19T08:47:41.528Z,73.40
2023-01-19T08:50:07.952Z,73.44
2023-01-19T08:52:34.371Z,72.76
2023-01-19T08:55:02.741Z,72.81
2023-01-19T08:57:29.121Z,73.43
2023-01-19T08:59:55.676Z,73.54
2023-01-19T09:02:22.742Z,72.92
2023-01-19T09:04:49.426Z,71.74
2023-01-19T09:07:15.811Z,72.09
2023-01-19T09:09:42.192Z,72.00
2023-01-19T09:12:08.543Z,72.25
2023-01-19T09:14:34.905Z,71.55
2023-01-19T09:17:01.353Z,70.73
2023-01-19T09:19:27.815Z,69.68
2023-01-19T09:21:54.161Z,68.46
2023-01-19T09:24:20.685Z,67.11
2023-01-19T09:26:49.152Z,67.51
2023-01-19T09:29:15.502Z,68.37
2023-01-19T09:31:41.947Z,68.83
2023-01-19T09:34:08.574Z,67.38
2023-01-19T09:36:34.918Z,64.35
2023-01-19T09:39:02.332Z,63.20
2023-01-19T09:41:28.735Z,63.10
2023-01-19T09:43:55.219Z,63.88
2023-01-19T09:46:21.661Z,65.27
2023-01-19T09:48:48.195Z,66.19
2023-01-19T09:51:14.584Z,64.87
2023-01-19T09:53:40.975Z,65.13
2023-01-19T09:56:07.567Z,63.97
2023-01-19T09:58:33.923Z,62.03
2023-01-19T10:01:00.442Z,62.15
2023-01-19T10:03:26.932Z,61.39
2023-01-19T10:05:53.596Z,59.77
2023-01-19T10:08:22.137Z,59.97
2023-01-19T10:10:48.485Z,60.35
2023-01-19T10:13:14.856Z,59.85
2023-01-19T10:15:41.204Z,60.15
2023-01-19T10:18:07.581Z,60.21
2023-01-19T10:20:34.933Z,59.59
2023-01-19T10:23:01.556Z,58.88
2023-01-19T10:25:28.164Z,59.51
2023-01-19T10:27:54.582Z,58.72
2023-01-19T10:30:21.128Z,58.22
2023-01-19T10:32:47.488Z,58.31
2023-01-19T13:55:29.702Z,47.34
2023-01-19T14:03:37.914Z,48.24
2023-01-19T14:06:22.900Z,47.83
2023-01-19T14:12:02.191Z,47.94
2023-01-19T16:05:07.384Z,63.73
2023-01-19T16:07:38.553Z,64.18
2023-01-19T16:18:41.021Z,63.64
2023-01-19T16:21:07.788Z,63.92
2023-01-19T16:37:30.610Z,63.56
2023-01-19T16:48:22.727Z,66.55
2023-01-19T16:53:30.749Z,65.69
2023-01-19T17:24:26.907Z,65.18
2023-01-19T17:26:53.253Z,65.37
2023-01-19T17:29:19.586Z,65.93
2023-01-19T17:31:48.990Z,66.38
2023-01-19T17:34:15.477Z,67.13
2023-01-19T17:36:42.004Z,68.94
2023-01-19T17:39:08.357Z,68.12
2023-01-19T17:41:34.690Z,67.85
2023-01-19T17:44:01.092Z,68.42
2023-01-19T17:46:27.835Z,68.95
2023-01-19T17:48:54.228Z,69.56
2023-01-19T17:51:20.892Z,69.25
2023-01-19T17:53:47.764Z,69.51
2023-01-19T17:56:14.167Z,69.04
2023-01-19T17:58:40.553Z,69.42
2023-01-19T18:01:06.993Z,69.14
2023-01-19T18:03:33.590Z,69.02
2023-01-19T18:06:00.023Z,69.17
2023-01-19T18:08:26.452Z,68.62
2023-01-19T18:10:53.229Z,68.75
2023-01-19T18:13:19.611Z,68.94
2023-01-19T18:15:46.027Z,69.48
2023-01-19T18:18:12.503Z,69.31
2023-01-19T18:20:38.977Z,68.96
2023-01-19T18:23:06.811Z,68.31
2023-01-19T18:25:33.173Z,68.09
2023-01-19T18:27:59.528Z,68.14
2023-01-19T18:30:28.181Z,67.17
2023-01-19T18:32:55.012Z,67.96
2023-01-19T18:35:21.610Z,69.11
2023-01-19T18:37:48.331Z,69.06
2023-01-19T18:40:15.499Z,69.42
2023-01-19T18:42:42.955Z,69.58
2023-01-19T18:45:09.464Z,70.04
2023-01-19T18:47:36.586Z,70.23
2023-01-19T18:50:02.941Z,69.41
2023-01-19T18:52:31.693Z,69.70
2023-01-19T18:55:01.109Z,69.90
2023-01-19T18:57:27.791Z,69.68
2023-01-19T18:59:54.462Z,69.03
2023-01-19T19:02:21.939Z,69.22
2023-01-19T19:04:55.506Z,69.59
2023-01-19T19:07:22.906Z,69.75
2023-01-19T19:09:49.807Z,69.77
2023-01-19T19:12:18.325Z,69.85
2023-01-19T19:14:45.754Z,69.72
2023-01-19T19:17:14.240Z,69.73
2023-01-19T19:19:40.604Z,69.35
2023-01-19T19:22:06.951Z,69.43
2023-01-19T19:24:34.605Z,69.72
2023-01-19T19:27:00.967Z,70.22
2023-01-19T19:29:27.696Z,71.03
2023-01-19T19:31:55.427Z,70.09
2023-01-19T19:34:30.257Z,69.99
2023-01-19T19:36:56.947Z,70.17
2023-01-19T19:39:23.382Z,70.79
2023-01-19T19:41:50.009Z,71.58
2023-01-19T19:44:18.490Z,71.51
2023-01-19T19:46:45.731Z,71.29
2023-01-19T19:49:12.094Z,71.56
2023-01-19T19:51:40.481Z,71.23
2023-01-19T19:54:06.885Z,71.59
2023-01-19T19:56:33.341Z,71.48
2023-01-19T19:58:59.880Z,71.54
2023-01-19T20:01:32.930Z,71.29
2023-01-19T20:04:00.037Z,71.15
2023-01-19T20:06:26.726Z,71.25
2023-01-19T20:08:55.431Z,71.06
2023-01-19T20:11:21.887Z,71.36
2023-01-19T20:13:48.307Z,72.07
2023-01-19T20:16:14.687Z,72.26
2023-01-19T20:18:43.105Z,71.11
2023-01-19T20:21:11.721Z,70.98
2023-01-19T20:23:38.105Z,71.33
2023-01-19T20:26:04.496Z,71.46
2023-01-19T20:28:30.979Z,71.37
2023-01-19T20:30:57.364Z,71.41
2023-01-19T20:33:23.851Z,70.99
2023-01-19T20:35:50.325Z,70.18
2023-01-19T20:38:16.743Z,69.40
2023-01-19T20:40:43.735Z,69.55
2023-01-19T20:43:10.539Z,69.90
2023-01-19T20:45:37.287Z,69.90
2023-01-19T20:48:03.989Z,69.95
2023-01-19T20:50:30.381Z,70.97
2023-01-19T20:52:56.768Z,71.17
2023-01-19T20:55:23.160Z,71.98
2023-01-19T20:57:49.831Z,71.99
2023-01-19T21:00:16.283Z,72.12
2023-01-19T21:02:42.742Z,72.16
2023-01-19T21:05:10.167Z,71.92
2023-01-19T21:07:37.089Z,70.93
2023-01-19T21:10:03.696Z,70.02
2023-01-19T21:12:30.364Z,69.86
2023-01-19T21:15:01.043Z,70.22
2023-01-19T21:17:27.637Z,70.45
2023-01-19T21:19:56.055Z,70.64
2023-01-19T21:22:22.494Z,70.87
2023-01-19T21:24:48.890Z,70.71
2023-01-19T21:27:16.248Z,70.63
2023-01-19T21:29:42.667Z,70.22
2023-01-19T21:32:09.011Z,70.68
2023-01-19T21:34:35.422Z,70.80
2023-01-19T21:37:01.919Z,71.19
2023-01-19T21:39:28.312Z,71.75
2023-01-19T21:41:54.727Z,71.59
2023-01-19T21:44:21.338Z,71.45
2023-01-19T21:46:47.698Z,71.68
2023-01-19T21:49:15.450Z,71.26
2023-01-19T21:51:41.812Z,70.98
2023-01-19T21:54:08.491Z,69.99
2023-01-19T21:56:38.024Z,70.17
2023-01-19T21:59:04.390Z,70.12
2023-01-19T22:01:30.834Z,70.04
2023-01-19T22:03:57.733Z,70.22
2023-01-19T22:06:24.081Z,70.39
2023-01-19T22:08:50.422Z,69.62
2023-01-19T22:11:16.766Z,69.47
2023-01-19T22:13:45.313Z,69.96
2023-01-19T22:16:11.816Z,69.79
2023-01-19T22:18:38.245Z,70.59
2023-01-19T22:21:04.625Z,70.62
2023-01-19T22:23:31.075Z,70.27
2023-01-19T22:25:57.436Z,70.08
2023-01-19T22:28:23.812Z,69.72
2023-01-19T22:30:51.294Z,69.07
2023-01-19T22:33:18.077Z,69.26
2023-01-19T22:35:46.724Z,69.81
2023-01-19T22:38:13.072Z,69.92
2023-01-19T22:40:39.442Z,70.02
2023-01-19T22:43:05.872Z,69.98
2023-01-19T22:45:32.720Z,70.88
2023-01-19T22:47:59.187Z,71.11
2023-01-19T22:50:33.857Z,71.27
2023-01-19T22:53:00.205Z,71.19
2023-01-19T22:55:28.863Z,71.02
2023-01-19T22:57:56.101Z,70.62
2023-01-19T23:00:22.607Z,70.70
2023-01-19T23:02:49.191Z,70.64
2023-01-19T23:05:16.110Z,70.51
2023-01-19T23:07:42.737Z,70.56
2023-01-19T23:10:09.554Z,70.84
2023-01-19T23:12:35.904Z,71.09
2023-01-19T23:15:02.298Z,71.50
2023-01-19T23:17:28.910Z,71.88
2023-01-19T23:20:01.697Z,71.57
2023-01-19T23:22:28.117Z,71.01
2023-01-19T23:24:55.563Z,70.85
2023-01-19T23:27:21.955Z,71.23
2023-01-19T23:29:55.848Z,71.42
2023-01-19T23:32:23.219Z,71.08
2023-01-19T23:34:49.653Z,71.44
2023-01-19T23:37:18.240Z,71.39
2023-01-19T23:39:46.635Z,70.15
2023-01-19T23:42:13.027Z,69.90
2023-01-19T23:44:39.685Z,70.80
2023-01-19T23:47:08.100Z,70.86
2023-01-19T23:49:34.449Z,70.61
2023-01-19T23:52:01.007Z,70.04
2023-01-19T23:54:27.672Z,70.03
2023-01-19T23:56:54.229Z,70.49
2023-01-19T23:59:22.943Z,70.19
